Lykers, New York
Current Conditions -  °F | °C
As of 9:35 PM on Sunday 23 Nov 2014 (Local Time) from KNY0 Reporting Station
Scattered Clouds Scattered Clouds  
Wind Chill: 36°   Ceiling: Unl
Heat Index: 40°   Visibility: 10mi
Dew Point: 31°   Wind: 5mph
Humidity: 72%   Direction: 60°ENE
Pressure: 30"   Gusts: NA
Location:  42.8384°N, 74.4592°W
Report Text: KNY0 240235Z AUTO 06004KT 10SM SCT080 04/00 A3000 RMK AO2 T00421005
Loading
Personal Weather Stations






























Interactive Weather Map New forecast layout! Learn more

10-Day Weather Forecast

Advertisements
Track Severe Weather on mobile